LDSP/SPU METAR and TAF weather

Enter ICAO airport designator
Station Type Date Time Source
LDSP METAR 2022/08/16 18:00 UTC NOAA

LDSP 161800Z 12002KT CAVOK 26/18 Q1012 NOSIG


Station Type Date Time Source
LDSP Decoded METAR 2022/08/16 18:00 UTC NOAA

Split / Resnik, Croatia (LDSP) 43-32N 016-18E 21M
Aug 16, 2022 - 02:00 PM EDT / 2022.08.16 1800 UTC
Wind: from the ESE (120 degrees) at 2 MPH (2 KT):0
Visibility: greater than 7 mile(s):0
Temperature: 78 F (26 C)
Dew Point: 64 F (18 C)
Relative Humidity: 61%
Pressure (altimeter): 29.88 in. Hg (1012 hPa)
ob: LDSP 161800Z 12002KT CAVOK 26/18 Q1012 NOSIG
cycle: 18

Station Type Date Time Source
LDSP TAF 2022/08/16 18:27 UTC NOAA

TAF LDSP 161725Z 1618/1718 VRB02KT CAVOK TX31/1713Z TN21/1704Z
BECMG 1709/1711 23010KT
BECMG 1716/1718 31005KT

Example: see airport list